sensor_id;sensor_type;location;lat;lon;timestamp;P1;durP1;ratioP1;P2;durP2;ratioP2
60292;SDS011;52402;52.670;6.750;2022-11-20T00:00:28;30.58;;;25.63;;
60292;SDS011;52402;52.670;6.750;2022-11-20T00:02:54;30.55;;;19.95;;
60292;SDS011;52402;52.670;6.750;2022-11-20T00:05:19;31.00;;;24.10;;
60292;SDS011;52402;52.670;6.750;2022-11-20T00:07:46;22.73;;;15.85;;
60292;SDS011;52402;52.670;6.750;2022-11-20T00:10:11;23.52;;;16.08;;
60292;SDS011;52402;52.670;6.750;2022-11-20T00:12:37;27.02;;;20.80;;
60292;SDS011;52402;52.670;6.750;2022-11-20T00:15:03;26.08;;;20.83;;
60292;SDS011;52402;52.670;6.750;2022-11-20T00:17:29;26.55;;;18.95;;
60292;SDS011;52402;52.670;6.750;2022-11-20T00:19:55;27.08;;;17.58;;
60292;SDS011;52402;52.670;6.750;2022-11-20T00:22:20;24.92;;;17.20;;
60292;SDS011;52402;52.670;6.750;2022-11-20T00:24:46;20.25;;;16.30;;
60292;SDS011;52402;52.670;6.750;2022-11-20T00:27:11;17.08;;;9.60;;
60292;SDS011;52402;52.670;6.750;2022-11-20T00:29:37;28.30;;;21.50;;
60292;SDS011;52402;52.670;6.750;2022-11-20T00:32:03;21.58;;;13.63;;
60292;SDS011;52402;52.670;6.750;2022-11-20T00:34:28;26.05;;;17.15;;
60292;SDS011;52402;52.670;6.750;2022-11-20T00:36:54;25.73;;;21.33;;
60292;SDS011;52402;52.670;6.750;2022-11-20T00:39:19;24.05;;;17.73;;
60292;SDS011;52402;52.670;6.750;2022-11-20T00:41:45;24.08;;;13.82;;
60292;SDS011;52402;52.670;6.750;2022-11-20T00:44:10;23.38;;;15.82;;
60292;SDS011;52402;52.670;6.750;2022-11-20T00:46:36;24.40;;;17.20;;
60292;SDS011;52402;52.670;6.750;2022-11-20T00:49:02;19.75;;;13.98;;
60292;SDS011;52402;52.670;6.750;2022-11-20T00:51:27;23.38;;;18.20;;
60292;SDS011;52402;52.670;6.750;2022-11-20T00:53:57;25.40;;;20.55;;
60292;SDS011;52402;52.670;6.750;2022-11-20T00:56:24;20.83;;;12.02;;
60292;SDS011;52402;52.670;6.750;2022-11-20T00:58:51;24.50;;;19.50;;
60292;SDS011;52402;52.670;6.750;2022-11-20T01:01:17;23.63;;;16.85;;
60292;SDS011;52402;52.670;6.750;2022-11-20T01:03:45;17.08;;;10.88;;
60292;SDS011;52402;52.670;6.750;2022-11-20T01:06:19;24.90;;;15.02;;
60292;SDS011;52402;52.670;6.750;2022-11-20T01:08:49;24.55;;;16.65;;
60292;SDS011;52402;52.670;6.750;2022-11-20T01:11:17;20.90;;;12.02;;
60292;SDS011;52402;52.670;6.750;2022-11-20T01:13:45;24.90;;;17.85;;
60292;SDS011;52402;52.670;6.750;2022-11-20T01:16:13;26.92;;;22.02;;
60292;SDS011;52402;52.670;6.750;2022-11-20T01:18:44;23.52;;;14.05;;
60292;SDS011;52402;52.670;6.750;2022-11-20T01:21:15;20.92;;;13.55;;
60292;SDS011;52402;52.670;6.750;2022-11-20T01:23:52;19.75;;;16.48;;
60292;SDS011;52402;52.670;6.750;2022-11-20T01:26:22;25.60;;;18.67;;
60292;SDS011;52402;52.670;6.750;2022-11-20T01:28:49;27.90;;;15.68;;
60292;SDS011;52402;52.670;6.750;2022-11-20T01:33:44;21.95;;;15.25;;
60292;SDS011;52402;52.670;6.750;2022-11-20T01:36:11;23.23;;;17.58;;
60292;SDS011;52402;52.670;6.750;2022-11-20T01:38:37;17.63;;;12.98;;
60292;SDS011;52402;52.670;6.750;2022-11-20T01:41:03;23.52;;;15.88;;
60292;SDS011;52402;52.670;6.750;2022-11-20T01:43:30;22.58;;;15.35;;
60292;SDS011;52402;52.670;6.750;2022-11-20T01:51:31;26.20;;;22.52;;
60292;SDS011;52402;52.670;6.750;2022-11-20T01:54:12;16.77;;;10.57;;
60292;SDS011;52402;52.670;6.750;2022-11-20T01:56:47;27.08;;;19.83;;
60292;SDS011;52402;52.670;6.750;2022-11-20T01:59:15;20.95;;;15.50;;
60292;SDS011;52402;52.670;6.750;2022-11-20T02:01:43;23.38;;;18.38;;
60292;SDS011;52402;52.670;6.750;2022-11-20T02:04:09;25.65;;;18.58;;
60292;SDS011;52402;52.670;6.750;2022-11-20T02:06:36;19.60;;;13.98;;
60292;SDS011;52402;52.670;6.750;2022-11-20T02:09:07;21.80;;;15.63;;
60292;SDS011;52402;52.670;6.750;2022-11-20T02:11:33;29.63;;;24.67;;
60292;SDS011;52402;52.670;6.750;2022-11-20T02:13:59;24.83;;;16.33;;
60292;SDS011;52402;52.670;6.750;2022-11-20T02:16:25;24.80;;;18.38;;
60292;SDS011;52402;52.670;6.750;2022-11-20T02:18:59;15.40;;;8.95;;
60292;SDS011;52402;52.670;6.750;2022-11-20T02:21:28;31.35;;;27.08;;
60292;SDS011;52402;52.670;6.750;2022-11-20T02:26:43;23.63;;;18.77;;
60292;SDS011;52402;52.670;6.750;2022-11-20T02:29:21;15.90;;;8.37;;
60292;SDS011;52402;52.670;6.750;2022-11-20T02:31:51;21.08;;;10.75;;
60292;SDS011;52402;52.670;6.750;2022-11-20T02:34:18;24.10;;;17.20;;
60292;SDS011;52402;52.670;6.750;2022-11-20T02:36:44;24.05;;;17.90;;
60292;SDS011;52402;52.670;6.750;2022-11-20T02:39:11;21.23;;;13.48;;
60292;SDS011;52402;52.670;6.750;2022-11-20T02:41:38;22.17;;;12.75;;
60292;SDS011;52402;52.670;6.750;2022-11-20T02:44:04;22.55;;;14.15;;
60292;SDS011;52402;52.670;6.750;2022-11-20T02:46:30;24.90;;;19.58;;
60292;SDS011;52402;52.670;6.750;2022-11-20T02:48:57;24.88;;;17.92;;
60292;SDS011;52402;52.670;6.750;2022-11-20T02:51:22;23.38;;;18.13;;
60292;SDS011;52402;52.670;6.750;2022-11-20T02:53:48;19.90;;;12.77;;
60292;SDS011;52402;52.670;6.750;2022-11-20T02:56:14;21.02;;;16.48;;
60292;SDS011;52402;52.670;6.750;2022-11-20T02:58:40;24.45;;;20.40;;
60292;SDS011;52402;52.670;6.750;2022-11-20T03:01:06;25.63;;;16.98;;
60292;SDS011;52402;52.670;6.750;2022-11-20T03:03:31;28.05;;;19.67;;
60292;SDS011;52402;52.670;6.750;2022-11-20T03:05:58;22.95;;;14.40;;
60292;SDS011;52402;52.670;6.750;2022-11-20T03:08:25;30.85;;;25.10;;
60292;SDS011;52402;52.670;6.750;2022-11-20T03:10:51;25.60;;;17.52;;
60292;SDS011;52402;52.670;6.750;2022-11-20T03:13:16;19.67;;;13.27;;
60292;SDS011;52402;52.670;6.750;2022-11-20T03:15:42;23.70;;;16.73;;
60292;SDS011;52402;52.670;6.750;2022-11-20T03:18:08;25.00;;;19.55;;
60292;SDS011;52402;52.670;6.750;2022-11-20T03:20:33;26.35;;;18.77;;
60292;SDS011;52402;52.670;6.750;2022-11-20T03:22:59;21.55;;;16.25;;
60292;SDS011;52402;52.670;6.750;2022-11-20T03:25:26;21.85;;;15.35;;
60292;SDS011;52402;52.670;6.750;2022-11-20T03:27:51;25.90;;;16.58;;
60292;SDS011;52402;52.670;6.750;2022-11-20T03:30:17;24.92;;;18.85;;
60292;SDS011;52402;52.670;6.750;2022-11-20T03:32:43;26.55;;;18.80;;
60292;SDS011;52402;52.670;6.750;2022-11-20T03:35:09;19.10;;;13.30;;
60292;SDS011;52402;52.670;6.750;2022-11-20T03:37:35;22.85;;;17.15;;
60292;SDS011;52402;52.670;6.750;2022-11-20T03:40:00;24.70;;;17.88;;
60292;SDS011;52402;52.670;6.750;2022-11-20T03:42:26;26.58;;;16.90;;
60292;SDS011;52402;52.670;6.750;2022-11-20T03:45:10;19.65;;;13.82;;
60292;SDS011;52402;52.670;6.750;2022-11-20T03:47:35;23.08;;;18.10;;
60292;SDS011;52402;52.670;6.750;2022-11-20T03:50:01;22.95;;;15.02;;
60292;SDS011;52402;52.670;6.750;2022-11-20T03:52:27;21.95;;;14.30;;
60292;SDS011;52402;52.670;6.750;2022-11-20T03:54:53;25.58;;;19.02;;
60292;SDS011;52402;52.670;6.750;2022-11-20T03:57:18;29.42;;;19.70;;
60292;SDS011;52402;52.670;6.750;2022-11-20T03:59:44;22.65;;;17.38;;
60292;SDS011;52402;52.670;6.750;2022-11-20T04:02:09;21.52;;;14.23;;
60292;SDS011;52402;52.670;6.750;2022-11-20T04:04:35;22.52;;;15.63;;
60292;SDS011;52402;52.670;6.750;2022-11-20T04:07:01;23.13;;;14.38;;
60292;SDS011;52402;52.670;6.750;2022-11-20T04:09:27;30.67;;;25.52;;
60292;SDS011;52402;52.670;6.750;2022-11-20T04:11:53;28.25;;;22.83;;
60292;SDS011;52402;52.670;6.750;2022-11-20T04:14:18;19.90;;;12.80;;
60292;SDS011;52402;52.670;6.750;2022-11-20T04:16:44;24.80;;;17.88;;
60292;SDS011;52402;52.670;6.750;2022-11-20T04:19:13;20.60;;;14.50;;
60292;SDS011;52402;52.670;6.750;2022-11-20T04:21:40;25.13;;;16.63;;
60292;SDS011;52402;52.670;6.750;2022-11-20T04:24:07;24.60;;;20.67;;
60292;SDS011;52402;52.670;6.750;2022-11-20T04:26:33;22.88;;;15.27;;
60292;SDS011;52402;52.670;6.750;2022-11-20T04:28:59;26.77;;;22.33;;
60292;SDS011;52402;52.670;6.750;2022-11-20T04:31:31;24.30;;;16.77;;
60292;SDS011;52402;52.670;6.750;2022-11-20T04:34:04;26.30;;;19.20;;
60292;SDS011;52402;52.670;6.750;2022-11-20T04:36:32;24.92;;;20.30;;
60292;SDS011;52402;52.670;6.750;2022-11-20T04:38:59;19.80;;;16.52;;
60292;SDS011;52402;52.670;6.750;2022-11-20T04:41:30;26.00;;;21.35;;
60292;SDS011;52402;52.670;6.750;2022-11-20T04:43:57;24.00;;;18.58;;
60292;SDS011;52402;52.670;6.750;2022-11-20T04:46:28;19.52;;;13.20;;
60292;SDS011;52402;52.670;6.750;2022-11-20T04:48:55;26.60;;;20.60;;
60292;SDS011;52402;52.670;6.750;2022-11-20T04:51:21;30.27;;;27.15;;
60292;SDS011;52402;52.670;6.750;2022-11-20T04:53:47;18.98;;;13.70;;
60292;SDS011;52402;52.670;6.750;2022-11-20T04:56:13;19.35;;;13.07;;
60292;SDS011;52402;52.670;6.750;2022-11-20T04:58:39;22.42;;;16.25;;
60292;SDS011;52402;52.670;6.750;2022-11-20T05:01:06;28.35;;;22.92;;
60292;SDS011;52402;52.670;6.750;2022-11-20T05:03:34;22.75;;;15.18;;
60292;SDS011;52402;52.670;6.750;2022-11-20T05:06:00;23.50;;;17.10;;
60292;SDS011;52402;52.670;6.750;2022-11-20T05:08:26;26.30;;;19.85;;
60292;SDS011;52402;52.670;6.750;2022-11-20T05:10:52;19.77;;;10.20;;
60292;SDS011;52402;52.670;6.750;2022-11-20T05:13:18;27.20;;;17.35;;
60292;SDS011;52402;52.670;6.750;2022-11-20T05:15:43;33.45;;;29.77;;
60292;SDS011;52402;52.670;6.750;2022-11-20T05:18:09;24.63;;;16.38;;
60292;SDS011;52402;52.670;6.750;2022-11-20T05:20:34;21.55;;;13.65;;
60292;SDS011;52402;52.670;6.750;2022-11-20T05:23:01;31.08;;;27.75;;
60292;SDS011;52402;52.670;6.750;2022-11-20T05:25:27;25.73;;;21.58;;
60292;SDS011;52402;52.670;6.750;2022-11-20T05:27:53;19.60;;;13.27;;
60292;SDS011;52402;52.670;6.750;2022-11-20T05:30:18;20.42;;;14.68;;
60292;SDS011;52402;52.670;6.750;2022-11-20T05:32:44;29.10;;;25.17;;
60292;SDS011;52402;52.670;6.750;2022-11-20T05:35:10;27.70;;;23.05;;
60292;SDS011;52402;52.670;6.750;2022-11-20T05:37:35;19.83;;;12.70;;
60292;SDS011;52402;52.670;6.750;2022-11-20T05:40:01;35.28;;;29.88;;
60292;SDS011;52402;52.670;6.750;2022-11-20T05:42:29;23.27;;;16.40;;
60292;SDS011;52402;52.670;6.750;2022-11-20T05:44:59;30.05;;;25.70;;
60292;SDS011;52402;52.670;6.750;2022-11-20T05:47:31;20.55;;;13.60;;
60292;SDS011;52402;52.670;6.750;2022-11-20T05:49:58;29.27;;;23.65;;
60292;SDS011;52402;52.670;6.750;2022-11-20T05:52:23;28.35;;;21.48;;
60292;SDS011;52402;52.670;6.750;2022-11-20T05:54:49;27.35;;;22.58;;
60292;SDS011;52402;52.670;6.750;2022-11-20T05:57:15;31.92;;;25.70;;
60292;SDS011;52402;52.670;6.750;2022-11-20T05:59:41;20.55;;;10.93;;
60292;SDS011;52402;52.670;6.750;2022-11-20T06:02:06;30.20;;;22.27;;
60292;SDS011;52402;52.670;6.750;2022-11-20T06:04:32;25.67;;;20.13;;
60292;SDS011;52402;52.670;6.750;2022-11-20T06:06:58;24.77;;;17.63;;
60292;SDS011;52402;52.670;6.750;2022-11-20T06:09:23;25.13;;;16.77;;
60292;SDS011;52402;52.670;6.750;2022-11-20T06:11:49;37.05;;;26.02;;
60292;SDS011;52402;52.670;6.750;2022-11-20T06:14:14;29.25;;;20.50;;
60292;SDS011;52402;52.670;6.750;2022-11-20T06:16:40;34.05;;;27.30;;
60292;SDS011;52402;52.670;6.750;2022-11-20T06:19:05;33.85;;;30.25;;
60292;SDS011;52402;52.670;6.750;2022-11-20T06:21:31;23.95;;;15.85;;
60292;SDS011;52402;52.670;6.750;2022-11-20T06:23:56;24.13;;;16.98;;
60292;SDS011;52402;52.670;6.750;2022-11-20T06:26:24;28.38;;;23.00;;
60292;SDS011;52402;52.670;6.750;2022-11-20T06:28:53;20.60;;;11.13;;
60292;SDS011;52402;52.670;6.750;2022-11-20T06:31:22;24.75;;;18.35;;
60292;SDS011;52402;52.670;6.750;2022-11-20T06:33:49;33.40;;;28.92;;
60292;SDS011;52402;52.670;6.750;2022-11-20T06:36:16;32.03;;;28.75;;
60292;SDS011;52402;52.670;6.750;2022-11-20T06:38:43;25.55;;;21.35;;
60292;SDS011;52402;52.670;6.750;2022-11-20T06:41:10;25.30;;;17.83;;
60292;SDS011;52402;52.670;6.750;2022-11-20T06:43:37;24.20;;;18.33;;
60292;SDS011;52402;52.670;6.750;2022-11-20T06:46:03;23.08;;;15.90;;
60292;SDS011;52402;52.670;6.750;2022-11-20T06:48:29;26.15;;;20.83;;
60292;SDS011;52402;52.670;6.750;2022-11-20T06:50:55;18.90;;;10.38;;
60292;SDS011;52402;52.670;6.750;2022-11-20T06:53:21;18.70;;;13.98;;
60292;SDS011;52402;52.670;6.750;2022-11-20T06:55:47;30.00;;;26.80;;
60292;SDS011;52402;52.670;6.750;2022-11-20T06:58:14;19.90;;;13.15;;
60292;SDS011;52402;52.670;6.750;2022-11-20T07:00:40;25.40;;;19.42;;
60292;SDS011;52402;52.670;6.750;2022-11-20T07:03:07;28.40;;;25.42;;
60292;SDS011;52402;52.670;6.750;2022-11-20T07:05:34;22.00;;;15.38;;
60292;SDS011;52402;52.670;6.750;2022-11-20T07:08:01;23.63;;;16.48;;
60292;SDS011;52402;52.670;6.750;2022-11-20T07:10:27;25.65;;;19.95;;
60292;SDS011;52402;52.670;6.750;2022-11-20T07:12:53;26.40;;;22.02;;
60292;SDS011;52402;52.670;6.750;2022-11-20T07:15:19;25.73;;;20.33;;
60292;SDS011;52402;52.670;6.750;2022-11-20T07:17:46;31.48;;;27.38;;
60292;SDS011;52402;52.670;6.750;2022-11-20T07:20:12;19.92;;;15.05;;
60292;SDS011;52402;52.670;6.750;2022-11-20T07:22:38;22.90;;;17.13;;
60292;SDS011;52402;52.670;6.750;2022-11-20T07:25:04;24.63;;;21.50;;
60292;SDS011;52402;52.670;6.750;2022-11-20T07:27:30;21.95;;;14.68;;
60292;SDS011;52402;52.670;6.750;2022-11-20T07:29:56;22.10;;;16.45;;
60292;SDS011;52402;52.670;6.750;2022-11-20T07:32:21;24.30;;;20.08;;
60292;SDS011;52402;52.670;6.750;2022-11-20T07:34:47;26.48;;;23.23;;
60292;SDS011;52402;52.670;6.750;2022-11-20T07:37:13;27.83;;;25.05;;
60292;SDS011;52402;52.670;6.750;2022-11-20T07:39:39;21.65;;;14.93;;
60292;SDS011;52402;52.670;6.750;2022-11-20T07:42:05;23.95;;;18.58;;
60292;SDS011;52402;52.670;6.750;2022-11-20T07:44:31;21.90;;;14.55;;
60292;SDS011;52402;52.670;6.750;2022-11-20T07:46:57;30.63;;;27.60;;
60292;SDS011;52402;52.670;6.750;2022-11-20T07:49:23;25.23;;;19.88;;
60292;SDS011;52402;52.670;6.750;2022-11-20T07:51:51;21.00;;;16.45;;
60292;SDS011;52402;52.670;6.750;2022-11-20T07:54:19;28.83;;;25.80;;
60292;SDS011;52402;52.670;6.750;2022-11-20T07:56:45;19.35;;;12.55;;
60292;SDS011;52402;52.670;6.750;2022-11-20T07:59:11;27.10;;;24.35;;
60292;SDS011;52402;52.670;6.750;2022-11-20T08:01:37;24.65;;;22.05;;
60292;SDS011;52402;52.670;6.750;2022-11-20T08:04:07;20.48;;;14.02;;
60292;SDS011;52402;52.670;6.750;2022-11-20T08:06:32;20.88;;;11.07;;
60292;SDS011;52402;52.670;6.750;2022-11-20T08:08:58;27.60;;;24.70;;
60292;SDS011;52402;52.670;6.750;2022-11-20T08:11:24;23.42;;;18.88;;
60292;SDS011;52402;52.670;6.750;2022-11-20T08:14:08;19.10;;;9.88;;
60292;SDS011;52402;52.670;6.750;2022-11-20T08:16:37;26.58;;;23.88;;
60292;SDS011;52402;52.670;6.750;2022-11-20T08:19:13;26.58;;;23.85;;
60292;SDS011;52402;52.670;6.750;2022-11-20T08:21:40;27.92;;;24.70;;
60292;SDS011;52402;52.670;6.750;2022-11-20T08:24:06;23.88;;;19.45;;
60292;SDS011;52402;52.670;6.750;2022-11-20T08:26:32;26.45;;;21.08;;
60292;SDS011;52402;52.670;6.750;2022-11-20T08:28:58;29.67;;;26.70;;
60292;SDS011;52402;52.670;6.750;2022-11-20T08:31:25;22.15;;;17.90;;
60292;SDS011;52402;52.670;6.750;2022-11-20T08:33:51;24.50;;;21.05;;
60292;SDS011;52402;52.670;6.750;2022-11-20T08:36:18;30.45;;;27.38;;
60292;SDS011;52402;52.670;6.750;2022-11-20T08:38:48;30.83;;;27.70;;
60292;SDS011;52402;52.670;6.750;2022-11-20T08:41:15;24.63;;;18.52;;
60292;SDS011;52402;52.670;6.750;2022-11-20T08:46:20;25.85;;;20.25;;
60292;SDS011;52402;52.670;6.750;2022-11-20T08:48:50;22.60;;;16.50;;
60292;SDS011;52402;52.670;6.750;2022-11-20T08:51:15;22.70;;;17.20;;
60292;SDS011;52402;52.670;6.750;2022-11-20T08:53:43;28.42;;;25.52;;
60292;SDS011;52402;52.670;6.750;2022-11-20T08:56:09;27.02;;;24.33;;
60292;SDS011;52402;52.670;6.750;2022-11-20T08:58:35;25.90;;;22.80;;
60292;SDS011;52402;52.670;6.750;2022-11-20T09:01:01;25.17;;;19.58;;
60292;SDS011;52402;52.670;6.750;2022-11-20T09:03:28;26.20;;;23.33;;
60292;SDS011;52402;52.670;6.750;2022-11-20T09:06:00;27.65;;;24.85;;
60292;SDS011;52402;52.670;6.750;2022-11-20T09:08:27;22.55;;;17.60;;
60292;SDS011;52402;52.670;6.750;2022-11-20T09:10:53;28.95;;;25.95;;
60292;SDS011;52402;52.670;6.750;2022-11-20T09:13:20;24.85;;;17.75;;
60292;SDS011;52402;52.670;6.750;2022-11-20T09:15:47;24.17;;;17.77;;
60292;SDS011;52402;52.670;6.750;2022-11-20T09:18:17;31.38;;;28.17;;
60292;SDS011;52402;52.670;6.750;2022-11-20T09:20:43;31.90;;;28.70;;
60292;SDS011;52402;52.670;6.750;2022-11-20T09:23:09;26.15;;;20.70;;
60292;SDS011;52402;52.670;6.750;2022-11-20T09:25:34;31.02;;;27.92;;
60292;SDS011;52402;52.670;6.750;2022-11-20T09:28:00;19.63;;;11.38;;
60292;SDS011;52402;52.670;6.750;2022-11-20T09:30:26;30.83;;;27.60;;
60292;SDS011;52402;52.670;6.750;2022-11-20T09:32:52;25.38;;;20.25;;
60292;SDS011;52402;52.670;6.750;2022-11-20T09:35:17;28.75;;;25.80;;
60292;SDS011;52402;52.670;6.750;2022-11-20T09:37:44;24.63;;;21.13;;
60292;SDS011;52402;52.670;6.750;2022-11-20T09:40:17;23.63;;;19.70;;
60292;SDS011;52402;52.670;6.750;2022-11-20T09:45:15;27.25;;;20.17;;
60292;SDS011;52402;52.670;6.750;2022-11-20T09:48:08;26.27;;;23.48;;
60292;SDS011;52402;52.670;6.750;2022-11-20T09:56:25;30.13;;;26.92;;
60292;SDS011;52402;52.670;6.750;2022-11-20T09:58:51;27.00;;;22.13;;
60292;SDS011;52402;52.670;6.750;2022-11-20T10:01:23;26.27;;;21.10;;
60292;SDS011;52402;52.670;6.750;2022-11-20T10:03:58;27.38;;;24.60;;
60292;SDS011;52402;52.670;6.750;2022-11-20T10:14:23;29.42;;;26.45;;
60292;SDS011;52402;52.670;6.750;2022-11-20T10:28:19;25.48;;;22.88;;
60292;SDS011;52402;52.670;6.750;2022-11-20T10:30:57;25.88;;;23.27;;
60292;SDS011;52402;52.670;6.750;2022-11-20T10:33:29;24.50;;;21.90;;
60292;SDS011;52402;52.670;6.750;2022-11-20T10:36:05;22.85;;;19.10;;
60292;SDS011;52402;52.670;6.750;2022-11-20T10:38:35;18.00;;;14.90;;
60292;SDS011;52402;52.670;6.750;2022-11-20T10:41:04;18.23;;;14.50;;
60292;SDS011;52402;52.670;6.750;2022-11-20T10:43:50;19.00;;;9.73;;
60292;SDS011;52402;52.670;6.750;2022-11-20T10:46:40;23.77;;;21.38;;
60292;SDS011;52402;52.670;6.750;2022-11-20T10:49:18;21.60;;;19.40;;
60292;SDS011;52402;52.670;6.750;2022-11-20T10:54:32;19.80;;;17.70;;
60292;SDS011;52402;52.670;6.750;2022-11-20T10:57:15;21.45;;;19.25;;
60292;SDS011;52402;52.670;6.750;2022-11-20T11:00:11;21.20;;;19.13;;
60292;SDS011;52402;52.670;6.750;2022-11-20T11:02:42;23.23;;;20.80;;
60292;SDS011;52402;52.670;6.750;2022-11-20T11:05:17;21.80;;;19.65;;
60292;SDS011;52402;52.670;6.750;2022-11-20T11:08:01;20.85;;;18.25;;
60292;SDS011;52402;52.670;6.750;2022-11-20T11:12:58;22.73;;;20.42;;
60292;SDS011;52402;52.670;6.750;2022-11-20T11:17:54;21.83;;;19.52;;
60292;SDS011;52402;52.670;6.750;2022-11-20T11:20:23;21.90;;;19.80;;
60292;SDS011;52402;52.670;6.750;2022-11-20T11:22:54;19.42;;;17.33;;
60292;SDS011;52402;52.670;6.750;2022-11-20T11:25:31;21.80;;;19.65;;
60292;SDS011;52402;52.670;6.750;2022-11-20T11:27:59;18.92;;;17.00;;
60292;SDS011;52402;52.670;6.750;2022-11-20T11:30:28;19.83;;;17.75;;
60292;SDS011;52402;52.670;6.750;2022-11-20T11:33:03;19.65;;;17.60;;
60292;SDS011;52402;52.670;6.750;2022-11-20T11:35:30;19.52;;;17.52;;
60292;SDS011;52402;52.670;6.750;2022-11-20T11:38:10;19.42;;;17.52;;
60292;SDS011;52402;52.670;6.750;2022-11-20T11:40:41;17.63;;;15.82;;
60292;SDS011;52402;52.670;6.750;2022-11-20T11:43:07;19.52;;;17.58;;
60292;SDS011;52402;52.670;6.750;2022-11-20T11:46:02;15.80;;;7.65;;
60292;SDS011;52402;52.670;6.750;2022-11-20T11:48:38;19.75;;;17.85;;
60292;SDS011;52402;52.670;6.750;2022-11-20T11:51:07;19.15;;;17.25;;
60292;SDS011;52402;52.670;6.750;2022-11-20T11:53:33;19.20;;;17.27;;
60292;SDS011;52402;52.670;6.750;2022-11-20T11:56:08;19.00;;;17.00;;
60292;SDS011;52402;52.670;6.750;2022-11-20T11:58:48;18.23;;;16.42;;
60292;SDS011;52402;52.670;6.750;2022-11-20T12:07:13;17.88;;;16.13;;
60292;SDS011;52402;52.670;6.750;2022-11-20T12:09:48;17.73;;;15.73;;
60292;SDS011;52402;52.670;6.750;2022-11-20T12:12:18;19.50;;;16.20;;
60292;SDS011;52402;52.670;6.750;2022-11-20T12:14:47;18.88;;;16.88;;
60292;SDS011;52402;52.670;6.750;2022-11-20T12:17:17;13.52;;;7.65;;
60292;SDS011;52402;52.670;6.750;2022-11-20T12:19:44;17.50;;;15.73;;
60292;SDS011;52402;52.670;6.750;2022-11-20T12:24:43;18.70;;;16.80;;
60292;SDS011;52402;52.670;6.750;2022-11-20T12:30:08;18.60;;;16.58;;
60292;SDS011;52402;52.670;6.750;2022-11-20T12:41:08;18.65;;;16.85;;
60292;SDS011;52402;52.670;6.750;2022-11-20T12:44:10;18.50;;;16.60;;
60292;SDS011;52402;52.670;6.750;2022-11-20T12:47:24;18.00;;;16.20;;
60292;SDS011;52402;52.670;6.750;2022-11-20T12:49:56;17.48;;;15.63;;
60292;SDS011;52402;52.670;6.750;2022-11-20T12:52:38;17.10;;;15.38;;
60292;SDS011;52402;52.670;6.750;2022-11-20T12:55:15;17.08;;;15.40;;
60292;SDS011;52402;52.670;6.750;2022-11-20T12:57:58;18.50;;;16.35;;
60292;SDS011;52402;52.670;6.750;2022-11-20T13:00:26;18.13;;;16.25;;
60292;SDS011;52402;52.670;6.750;2022-11-20T13:08:20;20.40;;;18.35;;
60292;SDS011;52402;52.670;6.750;2022-11-20T13:16:25;20.88;;;18.83;;
60292;SDS011;52402;52.670;6.750;2022-11-20T13:19:13;19.67;;;17.70;;
60292;SDS011;52402;52.670;6.750;2022-11-20T13:21:42;21.00;;;18.90;;
60292;SDS011;52402;52.670;6.750;2022-11-20T13:27:00;17.48;;;11.23;;
60292;SDS011;52402;52.670;6.750;2022-11-20T13:29:33;24.42;;;22.00;;
60292;SDS011;52402;52.670;6.750;2022-11-20T13:34:50;25.38;;;22.92;;
60292;SDS011;52402;52.670;6.750;2022-11-20T13:40:24;26.90;;;24.33;;
60292;SDS011;52402;52.670;6.750;2022-11-20T13:45:28;28.23;;;25.40;;
60292;SDS011;52402;52.670;6.750;2022-11-20T13:47:55;29.55;;;26.63;;
60292;SDS011;52402;52.670;6.750;2022-11-20T13:50:30;27.60;;;24.67;;
60292;SDS011;52402;52.670;6.750;2022-11-20T13:53:33;27.77;;;25.08;;
60292;SDS011;52402;52.670;6.750;2022-11-20T13:58:56;27.83;;;25.13;;
60292;SDS011;52402;52.670;6.750;2022-11-20T14:01:28;22.77;;;12.30;;
60292;SDS011;52402;52.670;6.750;2022-11-20T14:03:56;27.88;;;25.27;;
60292;SDS011;52402;52.670;6.750;2022-11-20T14:06:29;28.40;;;25.60;;
60292;SDS011;52402;52.670;6.750;2022-11-20T14:08:57;28.67;;;25.80;;
60292;SDS011;52402;52.670;6.750;2022-11-20T14:11:25;30.42;;;27.33;;
60292;SDS011;52402;52.670;6.750;2022-11-20T14:18:49;30.38;;;27.30;;
60292;SDS011;52402;52.670;6.750;2022-11-20T14:21:24;23.65;;;12.90;;
60292;SDS011;52402;52.670;6.750;2022-11-20T14:23:53;30.55;;;27.55;;
60292;SDS011;52402;52.670;6.750;2022-11-20T14:26:28;23.67;;;13.65;;
60292;SDS011;52402;52.670;6.750;2022-11-20T14:28:53;32.38;;;29.02;;
60292;SDS011;52402;52.670;6.750;2022-11-20T14:31:23;31.67;;;28.42;;
60292;SDS011;52402;52.670;6.750;2022-11-20T14:33:51;31.10;;;28.00;;
60292;SDS011;52402;52.670;6.750;2022-11-20T14:36:20;30.85;;;27.95;;
60292;SDS011;52402;52.670;6.750;2022-11-20T14:38:50;31.63;;;28.52;;
60292;SDS011;52402;52.670;6.750;2022-11-20T14:41:21;32.78;;;29.60;;
60292;SDS011;52402;52.670;6.750;2022-11-20T14:43:50;32.20;;;29.00;;
60292;SDS011;52402;52.670;6.750;2022-11-20T14:46:19;22.85;;;12.65;;
60292;SDS011;52402;52.670;6.750;2022-11-20T14:48:46;31.60;;;28.35;;
60292;SDS011;52402;52.670;6.750;2022-11-20T14:51:28;31.60;;;28.52;;
60292;SDS011;52402;52.670;6.750;2022-11-20T14:54:16;32.22;;;29.05;;
60292;SDS011;52402;52.670;6.750;2022-11-20T14:56:59;34.88;;;31.35;;
60292;SDS011;52402;52.670;6.750;2022-11-20T14:59:33;32.88;;;29.65;;
60292;SDS011;52402;52.670;6.750;2022-11-20T15:02:06;33.38;;;30.17;;
60292;SDS011;52402;52.670;6.750;2022-11-20T15:04:45;33.58;;;30.13;;
60292;SDS011;52402;52.670;6.750;2022-11-20T15:07:10;32.00;;;28.73;;
60292;SDS011;52402;52.670;6.750;2022-11-20T15:09:36;32.47;;;29.25;;
60292;SDS011;52402;52.670;6.750;2022-11-20T15:12:02;30.65;;;27.67;;
60292;SDS011;52402;52.670;6.750;2022-11-20T15:14:28;34.10;;;30.70;;
60292;SDS011;52402;52.670;6.750;2022-11-20T15:16:57;33.08;;;29.67;;
60292;SDS011;52402;52.670;6.750;2022-11-20T15:19:24;34.42;;;31.05;;
60292;SDS011;52402;52.670;6.750;2022-11-20T15:21:51;34.35;;;30.98;;
60292;SDS011;52402;52.670;6.750;2022-11-20T15:24:17;35.55;;;31.98;;
60292;SDS011;52402;52.670;6.750;2022-11-20T15:26:43;34.17;;;30.73;;
60292;SDS011;52402;52.670;6.750;2022-11-20T15:29:10;33.33;;;30.13;;
60292;SDS011;52402;52.670;6.750;2022-11-20T15:31:38;33.08;;;29.90;;
60292;SDS011;52402;52.670;6.750;2022-11-20T15:34:13;34.60;;;31.13;;
60292;SDS011;52402;52.670;6.750;2022-11-20T15:36:39;35.72;;;32.17;;
60292;SDS011;52402;52.670;6.750;2022-11-20T15:39:06;36.70;;;33.20;;
60292;SDS011;52402;52.670;6.750;2022-11-20T15:41:33;35.35;;;31.77;;
60292;SDS011;52402;52.670;6.750;2022-11-20T15:43:59;36.45;;;32.97;;
60292;SDS011;52402;52.670;6.750;2022-11-20T15:46:26;36.08;;;32.58;;
60292;SDS011;52402;52.670;6.750;2022-11-20T15:48:54;30.65;;;26.40;;
60292;SDS011;52402;52.670;6.750;2022-11-20T15:53:46;36.88;;;33.30;;
60292;SDS011;52402;52.670;6.750;2022-11-20T15:56:12;41.03;;;37.03;;
60292;SDS011;52402;52.670;6.750;2022-11-20T15:58:39;38.92;;;34.92;;
60292;SDS011;52402;52.670;6.750;2022-11-20T16:01:05;39.70;;;35.78;;
60292;SDS011;52402;52.670;6.750;2022-11-20T16:03:38;38.97;;;35.08;;
60292;SDS011;52402;52.670;6.750;2022-11-20T16:06:04;40.33;;;36.15;;
60292;SDS011;52402;52.670;6.750;2022-11-20T16:08:30;40.13;;;36.30;;
60292;SDS011;52402;52.670;6.750;2022-11-20T16:10:55;39.63;;;35.67;;